sensor_id;sensor_type;location;lat;lon;timestamp;P1;durP1;ratioP1;P2;durP2;ratioP2
23242;SDS011;11790;49.578;11.214;2023-08-06T00:04:45;6.72;;;5.43;;
23242;SDS011;11790;49.578;11.214;2023-08-06T00:09:45;7.25;;;5.82;;
23242;SDS011;11790;49.578;11.214;2023-08-06T00:14:49;8.70;;;5.97;;
23242;SDS011;11790;49.578;11.214;2023-08-06T00:19:50;8.88;;;5.47;;
23242;SDS011;11790;49.578;11.214;2023-08-06T00:24:50;6.63;;;5.88;;
23242;SDS011;11790;49.578;11.214;2023-08-06T00:29:50;7.40;;;6.05;;
23242;SDS011;11790;49.578;11.214;2023-08-06T00:34:50;7.63;;;5.90;;
23242;SDS011;11790;49.578;11.214;2023-08-06T00:39:50;7.85;;;5.47;;
23242;SDS011;11790;49.578;11.214;2023-08-06T00:44:50;7.97;;;5.85;;
23242;SDS011;11790;49.578;11.214;2023-08-06T00:49:51;8.43;;;5.70;;
23242;SDS011;11790;49.578;11.214;2023-08-06T00:54:51;6.28;;;4.78;;
23242;SDS011;11790;49.578;11.214;2023-08-06T00:59:52;5.30;;;4.43;;
23242;SDS011;11790;49.578;11.214;2023-08-06T01:04:52;5.70;;;3.78;;
23242;SDS011;11790;49.578;11.214;2023-08-06T01:10:10;6.65;;;4.13;;
23242;SDS011;11790;49.578;11.214;2023-08-06T01:15:19;5.80;;;3.95;;
23242;SDS011;11790;49.578;11.214;2023-08-06T01:20:21;5.23;;;4.13;;
23242;SDS011;11790;49.578;11.214;2023-08-06T01:25:21;5.60;;;4.10;;
23242;SDS011;11790;49.578;11.214;2023-08-06T01:30:26;4.57;;;3.42;;
23242;SDS011;11790;49.578;11.214;2023-08-06T01:35:27;4.00;;;3.50;;
23242;SDS011;11790;49.578;11.214;2023-08-06T01:40:29;6.20;;;3.85;;
23242;SDS011;11790;49.578;11.214;2023-08-06T01:45:29;5.35;;;3.80;;
23242;SDS011;11790;49.578;11.214;2023-08-06T01:50:29;4.35;;;3.95;;
23242;SDS011;11790;49.578;11.214;2023-08-06T01:55:29;5.53;;;4.35;;
23242;SDS011;11790;49.578;11.214;2023-08-06T02:00:30;5.95;;;3.97;;
23242;SDS011;11790;49.578;11.214;2023-08-06T02:05:30;5.07;;;4.20;;
23242;SDS011;11790;49.578;11.214;2023-08-06T02:10:31;4.57;;;3.83;;
23242;SDS011;11790;49.578;11.214;2023-08-06T02:15:31;5.72;;;3.70;;
23242;SDS011;11790;49.578;11.214;2023-08-06T02:20:32;5.63;;;4.15;;
23242;SDS011;11790;49.578;11.214;2023-08-06T02:25:32;6.00;;;3.67;;
23242;SDS011;11790;49.578;11.214;2023-08-06T02:30:32;4.75;;;4.18;;
23242;SDS011;11790;49.578;11.214;2023-08-06T02:35:33;6.20;;;4.00;;
23242;SDS011;11790;49.578;11.214;2023-08-06T02:40:33;5.07;;;3.67;;
23242;SDS011;11790;49.578;11.214;2023-08-06T02:45:33;4.70;;;3.22;;
23242;SDS011;11790;49.578;11.214;2023-08-06T02:50:39;4.22;;;3.80;;
23242;SDS011;11790;49.578;11.214;2023-08-06T02:55:44;5.70;;;3.08;;
23242;SDS011;11790;49.578;11.214;2023-08-06T03:00:45;3.88;;;3.33;;
23242;SDS011;11790;49.578;11.214;2023-08-06T03:05:51;4.70;;;3.10;;
23242;SDS011;11790;49.578;11.214;2023-08-06T03:10:51;4.47;;;3.58;;
23242;SDS011;11790;49.578;11.214;2023-08-06T03:15:58;4.78;;;3.10;;
23242;SDS011;11790;49.578;11.214;2023-08-06T03:20:59;4.30;;;3.35;;
23242;SDS011;11790;49.578;11.214;2023-08-06T03:26:02;4.45;;;3.28;;
23242;SDS011;11790;49.578;11.214;2023-08-06T03:31:03;4.13;;;3.35;;
23242;SDS011;11790;49.578;11.214;2023-08-06T03:36:03;3.88;;;3.20;;
23242;SDS011;11790;49.578;11.214;2023-08-06T03:41:04;3.40;;;3.10;;
23242;SDS011;11790;49.578;11.214;2023-08-06T03:46:04;4.75;;;3.33;;
23242;SDS011;11790;49.578;11.214;2023-08-06T03:51:04;5.75;;;3.50;;
23242;SDS011;11790;49.578;11.214;2023-08-06T03:56:04;7.22;;;4.03;;
23242;SDS011;11790;49.578;11.214;2023-08-06T04:01:04;6.45;;;3.20;;
23242;SDS011;11790;49.578;11.214;2023-08-06T04:06:04;4.30;;;3.45;;
23242;SDS011;11790;49.578;11.214;2023-08-06T04:11:05;4.30;;;3.63;;
23242;SDS011;11790;49.578;11.214;2023-08-06T04:16:05;3.95;;;3.15;;
23242;SDS011;11790;49.578;11.214;2023-08-06T04:21:05;4.20;;;3.67;;
23242;SDS011;11790;49.578;11.214;2023-08-06T04:26:05;5.53;;;3.35;;
23242;SDS011;11790;49.578;11.214;2023-08-06T04:31:05;5.60;;;4.50;;
23242;SDS011;11790;49.578;11.214;2023-08-06T04:36:06;6.10;;;3.72;;
23242;SDS011;11790;49.578;11.214;2023-08-06T04:41:06;5.63;;;4.17;;
23242;SDS011;11790;49.578;11.214;2023-08-06T04:46:06;8.95;;;4.45;;
23242;SDS011;11790;49.578;11.214;2023-08-06T04:51:06;6.13;;;4.68;;
23242;SDS011;11790;49.578;11.214;2023-08-06T04:56:06;8.18;;;4.85;;
23242;SDS011;11790;49.578;11.214;2023-08-06T05:01:07;7.50;;;5.40;;
23242;SDS011;11790;49.578;11.214;2023-08-06T05:06:07;7.00;;;6.05;;
23242;SDS011;11790;49.578;11.214;2023-08-06T05:11:07;8.77;;;6.68;;
23242;SDS011;11790;49.578;11.214;2023-08-06T05:16:07;8.20;;;6.32;;
23242;SDS011;11790;49.578;11.214;2023-08-06T05:21:07;8.63;;;5.80;;
23242;SDS011;11790;49.578;11.214;2023-08-06T05:26:08;7.50;;;5.97;;
23242;SDS011;11790;49.578;11.214;2023-08-06T05:31:08;6.97;;;5.38;;
23242;SDS011;11790;49.578;11.214;2023-08-06T05:36:08;7.57;;;4.95;;
23242;SDS011;11790;49.578;11.214;2023-08-06T05:41:08;6.43;;;4.72;;
23242;SDS011;11790;49.578;11.214;2023-08-06T05:46:08;6.50;;;4.50;;
23242;SDS011;11790;49.578;11.214;2023-08-06T05:51:09;7.32;;;4.05;;
23242;SDS011;11790;49.578;11.214;2023-08-06T05:56:09;6.60;;;4.57;;
23242;SDS011;11790;49.578;11.214;2023-08-06T06:01:09;5.07;;;3.80;;
23242;SDS011;11790;49.578;11.214;2023-08-06T06:06:09;5.72;;;3.70;;
23242;SDS011;11790;49.578;11.214;2023-08-06T06:11:09;5.13;;;3.90;;
23242;SDS011;11790;49.578;11.214;2023-08-06T06:16:09;6.57;;;3.88;;
23242;SDS011;11790;49.578;11.214;2023-08-06T06:21:10;4.95;;;3.75;;
23242;SDS011;11790;49.578;11.214;2023-08-06T06:26:11;5.50;;;3.72;;
23242;SDS011;11790;49.578;11.214;2023-08-06T06:31:11;7.18;;;4.10;;
23242;SDS011;11790;49.578;11.214;2023-08-06T06:36:11;7.40;;;4.00;;
23242;SDS011;11790;49.578;11.214;2023-08-06T06:41:11;4.80;;;3.67;;
23242;SDS011;11790;49.578;11.214;2023-08-06T06:46:11;3.97;;;3.45;;
23242;SDS011;11790;49.578;11.214;2023-08-06T06:51:12;3.83;;;2.88;;
23242;SDS011;11790;49.578;11.214;2023-08-06T06:56:12;3.40;;;2.70;;
23242;SDS011;11790;49.578;11.214;2023-08-06T07:01:12;4.90;;;2.72;;
23242;SDS011;11790;49.578;11.214;2023-08-06T07:06:12;5.18;;;2.97;;
23242;SDS011;11790;49.578;11.214;2023-08-06T07:11:12;3.53;;;2.95;;
23242;SDS011;11790;49.578;11.214;2023-08-06T07:16:13;4.07;;;2.95;;
23242;SDS011;11790;49.578;11.214;2023-08-06T07:21:13;5.38;;;3.22;;
23242;SDS011;11790;49.578;11.214;2023-08-06T07:26:14;4.80;;;3.03;;
23242;SDS011;11790;49.578;11.214;2023-08-06T07:31:15;5.03;;;3.50;;
23242;SDS011;11790;49.578;11.214;2023-08-06T07:36:15;5.05;;;3.30;;
23242;SDS011;11790;49.578;11.214;2023-08-06T07:41:16;5.13;;;2.58;;
23242;SDS011;11790;49.578;11.214;2023-08-06T07:46:17;5.22;;;3.40;;
23242;SDS011;11790;49.578;11.214;2023-08-06T07:51:17;5.10;;;3.13;;
23242;SDS011;11790;49.578;11.214;2023-08-06T07:56:17;4.80;;;3.20;;
23242;SDS011;11790;49.578;11.214;2023-08-06T08:01:17;3.88;;;3.05;;
23242;SDS011;11790;49.578;11.214;2023-08-06T08:06:18;4.18;;;3.08;;
23242;SDS011;11790;49.578;11.214;2023-08-06T08:11:20;3.92;;;3.25;;
23242;SDS011;11790;49.578;11.214;2023-08-06T08:16:20;3.65;;;3.08;;
23242;SDS011;11790;49.578;11.214;2023-08-06T08:21:20;3.70;;;2.75;;
23242;SDS011;11790;49.578;11.214;2023-08-06T08:26:21;3.80;;;3.00;;
23242;SDS011;11790;49.578;11.214;2023-08-06T08:31:21;4.47;;;2.63;;
23242;SDS011;11790;49.578;11.214;2023-08-06T08:36:21;2.53;;;2.13;;
23242;SDS011;11790;49.578;11.214;2023-08-06T08:41:22;3.25;;;2.20;;
23242;SDS011;11790;49.578;11.214;2023-08-06T08:46:22;3.28;;;2.00;;
23242;SDS011;11790;49.578;11.214;2023-08-06T08:51:23;3.17;;;1.52;;
23242;SDS011;11790;49.578;11.214;2023-08-06T08:56:23;1.98;;;1.00;;
23242;SDS011;11790;49.578;11.214;2023-08-06T09:01:24;0.85;;;0.52;;
23242;SDS011;11790;49.578;11.214;2023-08-06T09:06:25;0.55;;;0.40;;
23242;SDS011;11790;49.578;11.214;2023-08-06T09:11:27;2.67;;;0.40;;
23242;SDS011;11790;49.578;11.214;2023-08-06T09:16:27;0.40;;;0.20;;
23242;SDS011;11790;49.578;11.214;2023-08-06T09:21:28;0.30;;;0.28;;
23242;SDS011;11790;49.578;11.214;2023-08-06T09:26:32;1.38;;;0.30;;
23242;SDS011;11790;49.578;11.214;2023-08-06T09:31:42;0.20;;;0.20;;
23242;SDS011;11790;49.578;11.214;2023-08-06T09:36:43;0.68;;;0.28;;
23242;SDS011;11790;49.578;11.214;2023-08-06T09:41:46;1.13;;;0.22;;
23242;SDS011;11790;49.578;11.214;2023-08-06T09:46:49;0.55;;;0.40;;
23242;SDS011;11790;49.578;11.214;2023-08-06T09:51:50;0.65;;;0.30;;
23242;SDS011;11790;49.578;11.214;2023-08-06T09:56:52;0.55;;;0.30;;
23242;SDS011;11790;49.578;11.214;2023-08-06T10:01:53;0.50;;;0.20;;
23242;SDS011;11790;49.578;11.214;2023-08-06T10:06:54;0.43;;;0.32;;
23242;SDS011;11790;49.578;11.214;2023-08-06T10:11:54;0.70;;;0.50;;
23242;SDS011;11790;49.578;11.214;2023-08-06T10:16:55;1.92;;;0.88;;
23242;SDS011;11790;49.578;11.214;2023-08-06T10:22:13;1.13;;;0.50;;
23242;SDS011;11790;49.578;11.214;2023-08-06T10:27:13;0.45;;;0.30;;
23242;SDS011;11790;49.578;11.214;2023-08-06T10:32:13;0.35;;;0.30;;
23242;SDS011;11790;49.578;11.214;2023-08-06T10:37:15;0.73;;;0.30;;
23242;SDS011;11790;49.578;11.214;2023-08-06T10:42:48;1.80;;;0.40;;
23242;SDS011;11790;49.578;11.214;2023-08-06T10:47:42;1.58;;;0.50;;
23242;SDS011;11790;49.578;11.214;2023-08-06T10:52:43;0.95;;;0.45;;
23242;SDS011;11790;49.578;11.214;2023-08-06T10:57:43;0.32;;;0.32;;
23242;SDS011;11790;49.578;11.214;2023-08-06T11:02:44;0.55;;;0.50;;
23242;SDS011;11790;49.578;11.214;2023-08-06T11:07:44;0.60;;;0.57;;
23242;SDS011;11790;49.578;11.214;2023-08-06T11:12:44;2.10;;;0.30;;
23242;SDS011;11790;49.578;11.214;2023-08-06T11:17:44;0.40;;;0.30;;
23242;SDS011;11790;49.578;11.214;2023-08-06T11:22:45;0.40;;;0.40;;
23242;SDS011;11790;49.578;11.214;2023-08-06T11:27:45;0.50;;;0.28;;
23242;SDS011;11790;49.578;11.214;2023-08-06T11:32:46;0.30;;;0.30;;
23242;SDS011;11790;49.578;11.214;2023-08-06T11:37:47;0.68;;;0.40;;
23242;SDS011;11790;49.578;11.214;2023-08-06T11:42:47;0.40;;;0.30;;
23242;SDS011;11790;49.578;11.214;2023-08-06T11:47:49;0.20;;;0.20;;
23242;SDS011;11790;49.578;11.214;2023-08-06T11:52:52;0.30;;;0.20;;
23242;SDS011;11790;49.578;11.214;2023-08-06T11:57:52;0.82;;;0.20;;
23242;SDS011;11790;49.578;11.214;2023-08-06T12:02:52;0.15;;;0.10;;
23242;SDS011;11790;49.578;11.214;2023-08-06T12:07:55;0.10;;;0.10;;
23242;SDS011;11790;49.578;11.214;2023-08-06T12:12:56;0.32;;;0.17;;
23242;SDS011;11790;49.578;11.214;2023-08-06T12:17:56;0.80;;;0.30;;
23242;SDS011;11790;49.578;11.214;2023-08-06T12:22:56;0.15;;;0.15;;
23242;SDS011;11790;49.578;11.214;2023-08-06T12:27:57;0.57;;;0.20;;
23242;SDS011;11790;49.578;11.214;2023-08-06T12:32:57;0.10;;;0.10;;
23242;SDS011;11790;49.578;11.214;2023-08-06T12:37:57;0.52;;;0.20;;
23242;SDS011;11790;49.578;11.214;2023-08-06T12:42:58;1.80;;;0.10;;
23242;SDS011;11790;49.578;11.214;2023-08-06T12:47:59;0.20;;;0.10;;
23242;SDS011;11790;49.578;11.214;2023-08-06T12:52:59;0.20;;;0.10;;
23242;SDS011;11790;49.578;11.214;2023-08-06T12:57:59;2.30;;;0.30;;
23242;SDS011;11790;49.578;11.214;2023-08-06T13:02:59;0.17;;;0.10;;
23242;SDS011;11790;49.578;11.214;2023-08-06T13:08:00;0.47;;;0.20;;
23242;SDS011;11790;49.578;11.214;2023-08-06T13:13:00;1.95;;;0.20;;
23242;SDS011;11790;49.578;11.214;2023-08-06T13:18:00;0.20;;;0.13;;
23242;SDS011;11790;49.578;11.214;2023-08-06T13:23:00;0.10;;;0.10;;
23242;SDS011;11790;49.578;11.214;2023-08-06T13:28:01;0.20;;;0.10;;
23242;SDS011;11790;49.578;11.214;2023-08-06T13:33:01;0.65;;;0.20;;
23242;SDS011;11790;49.578;11.214;2023-08-06T13:38:01;0.20;;;0.10;;
23242;SDS011;11790;49.578;11.214;2023-08-06T13:43:02;0.20;;;0.20;;
23242;SDS011;11790;49.578;11.214;2023-08-06T13:48:03;0.30;;;0.22;;
23242;SDS011;11790;49.578;11.214;2023-08-06T13:53:03;0.43;;;0.30;;
23242;SDS011;11790;49.578;11.214;2023-08-06T13:58:04;0.22;;;0.20;;
23242;SDS011;11790;49.578;11.214;2023-08-06T14:03:04;1.83;;;0.20;;
23242;SDS011;11790;49.578;11.214;2023-08-06T14:08:04;0.55;;;0.20;;
23242;SDS011;11790;49.578;11.214;2023-08-06T14:13:04;0.30;;;0.10;;
23242;SDS011;11790;49.578;11.214;2023-08-06T14:18:05;0.70;;;0.05;;
23242;SDS011;11790;49.578;11.214;2023-08-06T14:23:05;0.10;;;0.10;;
23242;SDS011;11790;49.578;11.214;2023-08-06T14:28:06;0.10;;;0.00;;
23242;SDS011;11790;49.578;11.214;2023-08-06T14:33:06;0.52;;;0.13;;
23242;SDS011;11790;49.578;11.214;2023-08-06T14:38:06;0.10;;;0.10;;
23242;SDS011;11790;49.578;11.214;2023-08-06T14:43:07;0.20;;;0.10;;
23242;SDS011;11790;49.578;11.214;2023-08-06T14:48:07;0.20;;;0.20;;
23242;SDS011;11790;49.578;11.214;2023-08-06T14:53:07;0.40;;;0.30;;
23242;SDS011;11790;49.578;11.214;2023-08-06T14:58:08;0.70;;;0.40;;
23242;SDS011;11790;49.578;11.214;2023-08-06T15:03:08;1.05;;;0.28;;
23242;SDS011;11790;49.578;11.214;2023-08-06T15:08:08;1.75;;;0.40;;
23242;SDS011;11790;49.578;11.214;2023-08-06T15:13:08;0.52;;;0.40;;
23242;SDS011;11790;49.578;11.214;2023-08-06T15:18:09;0.50;;;0.40;;
23242;SDS011;11790;49.578;11.214;2023-08-06T15:23:09;0.63;;;0.38;;
23242;SDS011;11790;49.578;11.214;2023-08-06T15:28:09;0.63;;;0.57;;
23242;SDS011;11790;49.578;11.214;2023-08-06T15:33:09;2.08;;;0.60;;
23242;SDS011;11790;49.578;11.214;2023-08-06T15:38:10;0.90;;;0.52;;
23242;SDS011;11790;49.578;11.214;2023-08-06T15:43:10;1.83;;;0.70;;
23242;SDS011;11790;49.578;11.214;2023-08-06T15:48:10;3.72;;;0.65;;
23242;SDS011;11790;49.578;11.214;2023-08-06T15:53:10;3.10;;;0.70;;
23242;SDS011;11790;49.578;11.214;2023-08-06T15:58:12;1.00;;;0.65;;
23242;SDS011;11790;49.578;11.214;2023-08-06T16:03:12;0.70;;;0.60;;
23242;SDS011;11790;49.578;11.214;2023-08-06T16:08:12;0.95;;;0.60;;
23242;SDS011;11790;49.578;11.214;2023-08-06T16:13:12;2.05;;;0.60;;
23242;SDS011;11790;49.578;11.214;2023-08-06T16:18:12;1.08;;;0.45;;
23242;SDS011;11790;49.578;11.214;2023-08-06T16:23:13;1.52;;;0.60;;
23242;SDS011;11790;49.578;11.214;2023-08-06T16:28:13;0.57;;;0.50;;
23242;SDS011;11790;49.578;11.214;2023-08-06T16:33:13;0.70;;;0.60;;
23242;SDS011;11790;49.578;11.214;2023-08-06T16:38:13;0.98;;;0.50;;
23242;SDS011;11790;49.578;11.214;2023-08-06T16:43:15;1.15;;;0.50;;
23242;SDS011;11790;49.578;11.214;2023-08-06T16:48:15;1.13;;;0.50;;
23242;SDS011;11790;49.578;11.214;2023-08-06T16:53:15;1.80;;;0.60;;
23242;SDS011;11790;49.578;11.214;2023-08-06T16:58:16;1.40;;;0.40;;
23242;SDS011;11790;49.578;11.214;2023-08-06T17:03:17;1.20;;;0.40;;
23242;SDS011;11790;49.578;11.214;2023-08-06T17:08:17;0.63;;;0.60;;
23242;SDS011;11790;49.578;11.214;2023-08-06T17:13:17;1.98;;;0.70;;
23242;SDS011;11790;49.578;11.214;2023-08-06T17:18:17;0.20;;;0.20;;
23242;SDS011;11790;49.578;11.214;2023-08-06T17:23:18;1.27;;;0.50;;
23242;SDS011;11790;49.578;11.214;2023-08-06T17:28:18;2.15;;;0.50;;
23242;SDS011;11790;49.578;11.214;2023-08-06T17:33:18;2.85;;;0.40;;
23242;SDS011;11790;49.578;11.214;2023-08-06T17:38:18;0.57;;;0.30;;
23242;SDS011;11790;49.578;11.214;2023-08-06T17:43:18;0.77;;;0.40;;
23242;SDS011;11790;49.578;11.214;2023-08-06T17:48:19;1.02;;;0.50;;
23242;SDS011;11790;49.578;11.214;2023-08-06T17:53:19;1.27;;;0.50;;
23242;SDS011;11790;49.578;11.214;2023-08-06T17:58:19;1.17;;;0.50;;
23242;SDS011;11790;49.578;11.214;2023-08-06T18:03:19;1.15;;;0.77;;
23242;SDS011;11790;49.578;11.214;2023-08-06T18:08:19;0.98;;;0.70;;
23242;SDS011;11790;49.578;11.214;2023-08-06T18:13:20;0.50;;;0.50;;
23242;SDS011;11790;49.578;11.214;2023-08-06T18:18:20;0.70;;;0.40;;
23242;SDS011;11790;49.578;11.214;2023-08-06T18:23:20;1.88;;;0.63;;
23242;SDS011;11790;49.578;11.214;2023-08-06T18:28:21;0.70;;;0.40;;
23242;SDS011;11790;49.578;11.214;2023-08-06T18:33:21;1.27;;;0.20;;
23242;SDS011;11790;49.578;11.214;2023-08-06T18:38:22;0.60;;;0.30;;
23242;SDS011;11790;49.578;11.214;2023-08-06T18:43:26;0.73;;;0.40;;
23242;SDS011;11790;49.578;11.214;2023-08-06T18:48:27;0.40;;;0.40;;
23242;SDS011;11790;49.578;11.214;2023-08-06T18:53:28;0.57;;;0.30;;
23242;SDS011;11790;49.578;11.214;2023-08-06T18:58:28;1.92;;;0.30;;
23242;SDS011;11790;49.578;11.214;2023-08-06T19:03:28;0.57;;;0.40;;
23242;SDS011;11790;49.578;11.214;2023-08-06T19:08:30;0.30;;;0.30;;
23242;SDS011;11790;49.578;11.214;2023-08-06T19:13:30;3.25;;;0.35;;
23242;SDS011;11790;49.578;11.214;2023-08-06T19:18:30;1.30;;;0.30;;
23242;SDS011;11790;49.578;11.214;2023-08-06T19:23:31;0.70;;;0.30;;
23242;SDS011;11790;49.578;11.214;2023-08-06T19:28:31;1.37;;;0.40;;
23242;SDS011;11790;49.578;11.214;2023-08-06T19:33:32;1.42;;;0.50;;
23242;SDS011;11790;49.578;11.214;2023-08-06T19:38:32;1.33;;;0.50;;
23242;SDS011;11790;49.578;11.214;2023-08-06T19:43:33;1.33;;;0.40;;
23242;SDS011;11790;49.578;11.214;2023-08-06T19:48:33;0.95;;;0.40;;
23242;SDS011;11790;49.578;11.214;2023-08-06T19:53:34;0.85;;;0.40;;
23242;SDS011;11790;49.578;11.214;2023-08-06T19:58:34;1.23;;;0.50;;
23242;SDS011;11790;49.578;11.214;2023-08-06T20:03:35;1.15;;;0.60;;
23242;SDS011;11790;49.578;11.214;2023-08-06T20:08:37;0.68;;;0.43;;
23242;SDS011;11790;49.578;11.214;2023-08-06T20:13:37;1.48;;;0.70;;
23242;SDS011;11790;49.578;11.214;2023-08-06T20:18:41;1.88;;;0.60;;
23242;SDS011;11790;49.578;11.214;2023-08-06T20:23:41;1.00;;;0.60;;
23242;SDS011;11790;49.578;11.214;2023-08-06T20:28:42;1.07;;;0.60;;
23242;SDS011;11790;49.578;11.214;2023-08-06T20:33:42;0.70;;;0.60;;
23242;SDS011;11790;49.578;11.214;2023-08-06T20:38:42;0.80;;;0.60;;
23242;SDS011;11790;49.578;11.214;2023-08-06T20:43:42;1.15;;;0.68;;
23242;SDS011;11790;49.578;11.214;2023-08-06T20:48:43;0.90;;;0.55;;
23242;SDS011;11790;49.578;11.214;2023-08-06T20:53:43;1.23;;;0.63;;
23242;SDS011;11790;49.578;11.214;2023-08-06T20:58:43;0.87;;;0.67;;
23242;SDS011;11790;49.578;11.214;2023-08-06T21:03:44;0.80;;;0.70;;
23242;SDS011;11790;49.578;11.214;2023-08-06T21:08:44;1.48;;;0.82;;
23242;SDS011;11790;49.578;11.214;2023-08-06T21:13:44;0.82;;;0.52;;
23242;SDS011;11790;49.578;11.214;2023-08-06T21:18:44;2.15;;;0.80;;
23242;SDS011;11790;49.578;11.214;2023-08-06T21:23:45;2.15;;;0.65;;
23242;SDS011;11790;49.578;11.214;2023-08-06T21:28:45;1.15;;;0.70;;
23242;SDS011;11790;49.578;11.214;2023-08-06T21:33:45;1.10;;;0.65;;
23242;SDS011;11790;49.578;11.214;2023-08-06T21:38:45;1.08;;;0.80;;
23242;SDS011;11790;49.578;11.214;2023-08-06T21:43:47;1.00;;;0.90;;
23242;SDS011;11790;49.578;11.214;2023-08-06T21:48:48;1.48;;;0.90;;
23242;SDS011;11790;49.578;11.214;2023-08-06T21:53:48;2.22;;;1.30;;
23242;SDS011;11790;49.578;11.214;2023-08-06T21:58:49;2.15;;;1.20;;
23242;SDS011;11790;49.578;11.214;2023-08-06T22:03:49;1.75;;;1.20;;
23242;SDS011;11790;49.578;11.214;2023-08-06T22:08:50;2.05;;;1.10;;
23242;SDS011;11790;49.578;11.214;2023-08-06T22:13:53;1.40;;;0.85;;
23242;SDS011;11790;49.578;11.214;2023-08-06T22:18:53;1.85;;;1.08;;
23242;SDS011;11790;49.578;11.214;2023-08-06T22:23:53;1.05;;;0.80;;
23242;SDS011;11790;49.578;11.214;2023-08-06T22:28:54;1.55;;;1.00;;
23242;SDS011;11790;49.578;11.214;2023-08-06T22:33:54;2.13;;;1.00;;
23242;SDS011;11790;49.578;11.214;2023-08-06T22:38:54;1.30;;;1.08;;
23242;SDS011;11790;49.578;11.214;2023-08-06T22:43:54;4.30;;;1.08;;
23242;SDS011;11790;49.578;11.214;2023-08-06T22:48:54;2.10;;;1.20;;
23242;SDS011;11790;49.578;11.214;2023-08-06T22:53:55;1.88;;;1.10;;
23242;SDS011;11790;49.578;11.214;2023-08-06T22:58:55;2.47;;;1.20;;
23242;SDS011;11790;49.578;11.214;2023-08-06T23:03:55;1.95;;;0.90;;
23242;SDS011;11790;49.578;11.214;2023-08-06T23:08:55;1.10;;;0.85;;
23242;SDS011;11790;49.578;11.214;2023-08-06T23:13:55;4.00;;;1.25;;
23242;SDS011;11790;49.578;11.214;2023-08-06T23:18:55;1.83;;;1.17;;
23242;SDS011;11790;49.578;11.214;2023-08-06T23:23:56;1.08;;;0.70;;
23242;SDS011;11790;49.578;11.214;2023-08-06T23:28:56;1.15;;;0.65;;
23242;SDS011;11790;49.578;11.214;2023-08-06T23:33:56;1.23;;;0.82;;
23242;SDS011;11790;49.578;11.214;2023-08-06T23:38:56;2.63;;;0.75;;
23242;SDS011;11790;49.578;11.214;2023-08-06T23:43:56;1.60;;;0.70;;
23242;SDS011;11790;49.578;11.214;2023-08-06T23:48:57;3.05;;;0.68;;
23242;SDS011;11790;49.578;11.214;2023-08-06T23:53:57;2.75;;;0.68;;
23242;SDS011;11790;49.578;11.214;2023-08-06T23:58:57;0.90;;;0.70;;
